sensor_id;sensor_type;location;lat;lon;timestamp;temperature;humidity
78647;DHT22;67961;43.460;3.762;2023-06-05T00:01:16;19.70;74.60
78647;DHT22;67961;43.460;3.762;2023-06-05T00:03:43;19.70;74.20
78647;DHT22;67961;43.460;3.762;2023-06-05T00:06:09;19.70;74.20
78647;DHT22;67961;43.460;3.762;2023-06-05T00:08:35;19.70;74.20
78647;DHT22;67961;43.460;3.762;2023-06-05T00:11:01;19.70;74.10
78647;DHT22;67961;43.460;3.762;2023-06-05T00:13:26;19.70;73.90
78647;DHT22;67961;43.460;3.762;2023-06-05T00:15:52;19.60;73.90
78647;DHT22;67961;43.460;3.762;2023-06-05T00:18:18;19.50;74.20
78647;DHT22;67961;43.460;3.762;2023-06-05T00:20:44;19.50;74.30
78647;DHT22;67961;43.460;3.762;2023-06-05T00:23:10;19.40;74.60
78647;DHT22;67961;43.460;3.762;2023-06-05T00:25:39;19.40;74.60
78647;DHT22;67961;43.460;3.762;2023-06-05T00:28:05;19.30;74.70
78647;DHT22;67961;43.460;3.762;2023-06-05T00:30:30;19.30;74.90
78647;DHT22;67961;43.460;3.762;2023-06-05T00:32:56;19.20;74.90
78647;DHT22;67961;43.460;3.762;2023-06-05T00:35:22;19.10;75.10
78647;DHT22;67961;43.460;3.762;2023-06-05T00:37:48;19.00;75.40
78647;DHT22;67961;43.460;3.762;2023-06-05T00:40:14;18.90;75.70
78647;DHT22;67961;43.460;3.762;2023-06-05T00:42:39;18.90;75.60
78647;DHT22;67961;43.460;3.762;2023-06-05T00:45:06;18.90;75.70
78647;DHT22;67961;43.460;3.762;2023-06-05T00:47:32;18.90;75.90
78647;DHT22;67961;43.460;3.762;2023-06-05T00:49:58;18.90;75.70
78647;DHT22;67961;43.460;3.762;2023-06-05T00:52:25;18.90;75.50
78647;DHT22;67961;43.460;3.762;2023-06-05T00:54:52;18.80;75.70
78647;DHT22;67961;43.460;3.762;2023-06-05T00:57:18;18.70;76.00
78647;DHT22;67961;43.460;3.762;2023-06-05T00:59:44;18.70;76.20
78647;DHT22;67961;43.460;3.762;2023-06-05T01:02:11;18.70;76.40
78647;DHT22;67961;43.460;3.762;2023-06-05T01:04:39;18.70;76.20
78647;DHT22;67961;43.460;3.762;2023-06-05T01:07:06;18.70;76.20
78647;DHT22;67961;43.460;3.762;2023-06-05T01:09:33;18.70;76.20
78647;DHT22;67961;43.460;3.762;2023-06-05T01:14:35;18.70;76.20
78647;DHT22;67961;43.460;3.762;2023-06-05T01:17:07;18.70;76.20
78647;DHT22;67961;43.460;3.762;2023-06-05T01:19:34;18.80;75.80
78647;DHT22;67961;43.460;3.762;2023-06-05T01:22:01;18.90;75.50
78647;DHT22;67961;43.460;3.762;2023-06-05T01:24:27;18.90;75.70
78647;DHT22;67961;43.460;3.762;2023-06-05T01:30:08;18.70;75.80
78647;DHT22;67961;43.460;3.762;2023-06-05T01:33:01;18.60;76.10
78647;DHT22;67961;43.460;3.762;2023-06-05T01:35:31;18.50;76.30
78647;DHT22;67961;43.460;3.762;2023-06-05T01:38:00;18.60;76.40
78647;DHT22;67961;43.460;3.762;2023-06-05T01:40:29;18.60;76.30
78647;DHT22;67961;43.460;3.762;2023-06-05T01:42:56;18.70;76.10
78647;DHT22;67961;43.460;3.762;2023-06-05T01:45:23;18.70;76.10
78647;DHT22;67961;43.460;3.762;2023-06-05T01:47:49;18.70;76.40
78647;DHT22;67961;43.460;3.762;2023-06-05T01:50:16;18.80;76.50
78647;DHT22;67961;43.460;3.762;2023-06-05T01:52:42;18.70;76.50
78647;DHT22;67961;43.460;3.762;2023-06-05T01:55:17;18.70;76.70
78647;DHT22;67961;43.460;3.762;2023-06-05T01:57:46;18.80;76.60
78647;DHT22;67961;43.460;3.762;2023-06-05T02:00:12;18.90;76.50
78647;DHT22;67961;43.460;3.762;2023-06-05T02:02:39;18.90;76.50
78647;DHT22;67961;43.460;3.762;2023-06-05T02:05:12;18.90;76.50
78647;DHT22;67961;43.460;3.762;2023-06-05T02:07:39;18.90;76.50
78647;DHT22;67961;43.460;3.762;2023-06-05T02:10:06;19.00;76.40
78647;DHT22;67961;43.460;3.762;2023-06-05T02:12:32;19.00;76.60
78647;DHT22;67961;43.460;3.762;2023-06-05T02:15:01;19.00;76.50
78647;DHT22;67961;43.460;3.762;2023-06-05T02:17:27;19.00;76.60
78647;DHT22;67961;43.460;3.762;2023-06-05T02:19:52;19.00;76.50
78647;DHT22;67961;43.460;3.762;2023-06-05T02:22:18;19.00;76.70
78647;DHT22;67961;43.460;3.762;2023-06-05T02:24:44;19.00;76.60
78647;DHT22;67961;43.460;3.762;2023-06-05T02:27:10;19.10;76.60
78647;DHT22;67961;43.460;3.762;2023-06-05T02:29:38;19.10;76.60
78647;DHT22;67961;43.460;3.762;2023-06-05T02:32:05;19.10;76.60
78647;DHT22;67961;43.460;3.762;2023-06-05T02:34:32;19.20;76.40
78647;DHT22;67961;43.460;3.762;2023-06-05T02:37:00;19.20;76.40
78647;DHT22;67961;43.460;3.762;2023-06-05T02:39:26;19.30;76.10
78647;DHT22;67961;43.460;3.762;2023-06-05T02:41:53;19.40;75.80
78647;DHT22;67961;43.460;3.762;2023-06-05T02:44:19;19.30;76.00
78647;DHT22;67961;43.460;3.762;2023-06-05T02:46:44;19.30;76.10
78647;DHT22;67961;43.460;3.762;2023-06-05T02:49:10;19.30;76.10
78647;DHT22;67961;43.460;3.762;2023-06-05T02:51:36;19.30;76.10
78647;DHT22;67961;43.460;3.762;2023-06-05T02:54:02;19.30;76.20
78647;DHT22;67961;43.460;3.762;2023-06-05T02:56:28;19.30;76.20
78647;DHT22;67961;43.460;3.762;2023-06-05T02:58:54;19.20;76.20
78647;DHT22;67961;43.460;3.762;2023-06-05T03:01:22;19.30;76.20
78647;DHT22;67961;43.460;3.762;2023-06-05T03:03:48;19.30;76.30
78647;DHT22;67961;43.460;3.762;2023-06-05T03:06:14;19.40;76.00
78647;DHT22;67961;43.460;3.762;2023-06-05T03:08:43;19.40;75.80
78647;DHT22;67961;43.460;3.762;2023-06-05T03:11:08;19.40;75.70
78647;DHT22;67961;43.460;3.762;2023-06-05T03:13:34;19.40;75.50
78647;DHT22;67961;43.460;3.762;2023-06-05T03:16:00;19.50;75.50
78647;DHT22;67961;43.460;3.762;2023-06-05T03:18:29;19.50;75.50
78647;DHT22;67961;43.460;3.762;2023-06-05T03:20:56;19.50;75.40
78647;DHT22;67961;43.460;3.762;2023-06-05T03:23:26;19.50;75.50
78647;DHT22;67961;43.460;3.762;2023-06-05T03:25:53;19.50;75.60
78647;DHT22;67961;43.460;3.762;2023-06-05T03:28:20;19.40;75.70
78647;DHT22;67961;43.460;3.762;2023-06-05T03:30:46;19.40;75.70
78647;DHT22;67961;43.460;3.762;2023-06-05T03:33:13;19.40;75.70
78647;DHT22;67961;43.460;3.762;2023-06-05T03:35:45;19.40;75.90
78647;DHT22;67961;43.460;3.762;2023-06-05T03:38:14;19.30;76.20
78647;DHT22;67961;43.460;3.762;2023-06-05T03:40:40;19.30;76.40
78647;DHT22;67961;43.460;3.762;2023-06-05T03:43:06;19.30;76.30
78647;DHT22;67961;43.460;3.762;2023-06-05T03:45:36;19.30;76.40
78647;DHT22;67961;43.460;3.762;2023-06-05T03:48:03;19.30;76.40
78647;DHT22;67961;43.460;3.762;2023-06-05T03:50:28;19.40;76.40
78647;DHT22;67961;43.460;3.762;2023-06-05T03:52:57;19.40;76.40
78647;DHT22;67961;43.460;3.762;2023-06-05T03:55:33;19.30;76.60
78647;DHT22;67961;43.460;3.762;2023-06-05T03:58:12;19.30;76.70
78647;DHT22;67961;43.460;3.762;2023-06-05T04:00:46;19.20;76.80
78647;DHT22;67961;43.460;3.762;2023-06-05T04:03:14;19.20;77.10
78647;DHT22;67961;43.460;3.762;2023-06-05T04:05:41;19.20;77.00
78647;DHT22;67961;43.460;3.762;2023-06-05T04:08:08;19.10;77.20
78647;DHT22;67961;43.460;3.762;2023-06-05T04:10:35;19.10;77.50
78647;DHT22;67961;43.460;3.762;2023-06-05T04:13:01;19.10;77.50
78647;DHT22;67961;43.460;3.762;2023-06-05T04:15:27;19.10;77.50
78647;DHT22;67961;43.460;3.762;2023-06-05T04:17:53;19.20;77.20
78647;DHT22;67961;43.460;3.762;2023-06-05T04:20:19;19.20;77.00
78647;DHT22;67961;43.460;3.762;2023-06-05T04:22:45;19.20;77.20
78647;DHT22;67961;43.460;3.762;2023-06-05T04:25:12;19.20;77.20
78647;DHT22;67961;43.460;3.762;2023-06-05T04:27:42;19.20;77.20
78647;DHT22;67961;43.460;3.762;2023-06-05T04:30:09;19.20;77.10
78647;DHT22;67961;43.460;3.762;2023-06-05T04:32:36;19.20;77.20
78647;DHT22;67961;43.460;3.762;2023-06-05T04:37:31;19.20;77.40
78647;DHT22;67961;43.460;3.762;2023-06-05T04:39:57;19.30;77.40
78647;DHT22;67961;43.460;3.762;2023-06-05T04:42:24;19.30;77.50
78647;DHT22;67961;43.460;3.762;2023-06-05T04:45:00;19.30;77.70
78647;DHT22;67961;43.460;3.762;2023-06-05T04:47:27;19.30;77.40
78647;DHT22;67961;43.460;3.762;2023-06-05T04:49:53;19.40;77.10
78647;DHT22;67961;43.460;3.762;2023-06-05T04:52:20;19.40;76.90
78647;DHT22;67961;43.460;3.762;2023-06-05T04:54:47;19.40;77.10
78647;DHT22;67961;43.460;3.762;2023-06-05T04:57:12;19.40;77.00
78647;DHT22;67961;43.460;3.762;2023-06-05T04:59:38;19.40;77.20
78647;DHT22;67961;43.460;3.762;2023-06-05T05:02:04;19.50;77.10
78647;DHT22;67961;43.460;3.762;2023-06-05T05:04:30;19.50;77.00
78647;DHT22;67961;43.460;3.762;2023-06-05T05:06:56;19.50;77.00
78647;DHT22;67961;43.460;3.762;2023-06-05T05:09:27;19.50;76.90
78647;DHT22;67961;43.460;3.762;2023-06-05T05:11:52;19.50;77.00
78647;DHT22;67961;43.460;3.762;2023-06-05T05:14:18;19.50;77.10
78647;DHT22;67961;43.460;3.762;2023-06-05T05:16:44;19.50;76.70
78647;DHT22;67961;43.460;3.762;2023-06-05T05:19:10;19.50;76.50
78647;DHT22;67961;43.460;3.762;2023-06-05T05:21:36;19.70;76.10
78647;DHT22;67961;43.460;3.762;2023-06-05T05:24:02;19.70;75.90
78647;DHT22;67961;43.460;3.762;2023-06-05T05:26:27;19.70;76.20
78647;DHT22;67961;43.460;3.762;2023-06-05T05:28:53;19.80;76.20
78647;DHT22;67961;43.460;3.762;2023-06-05T05:31:19;19.90;75.70
78647;DHT22;67961;43.460;3.762;2023-06-05T05:33:45;19.90;75.60
78647;DHT22;67961;43.460;3.762;2023-06-05T05:36:10;19.80;75.40
78647;DHT22;67961;43.460;3.762;2023-06-05T05:38:36;19.70;75.20
78647;DHT22;67961;43.460;3.762;2023-06-05T05:41:02;19.70;75.30
78647;DHT22;67961;43.460;3.762;2023-06-05T05:43:27;19.80;75.40
78647;DHT22;67961;43.460;3.762;2023-06-05T05:45:53;19.90;75.20
78647;DHT22;67961;43.460;3.762;2023-06-05T05:48:19;19.90;74.80
78647;DHT22;67961;43.460;3.762;2023-06-05T05:50:44;19.90;74.60
78647;DHT22;67961;43.460;3.762;2023-06-05T05:53:10;19.90;74.30
78647;DHT22;67961;43.460;3.762;2023-06-05T05:55:36;20.00;74.40
78647;DHT22;67961;43.460;3.762;2023-06-05T05:58:02;20.00;74.30
78647;DHT22;67961;43.460;3.762;2023-06-05T06:00:27;20.10;74.10
78647;DHT22;67961;43.460;3.762;2023-06-05T06:02:53;20.20;74.20
78647;DHT22;67961;43.460;3.762;2023-06-05T06:05:19;20.30;73.80
78647;DHT22;67961;43.460;3.762;2023-06-05T06:07:45;20.40;73.30
78647;DHT22;67961;43.460;3.762;2023-06-05T06:10:11;20.50;73.50
78647;DHT22;67961;43.460;3.762;2023-06-05T06:12:39;20.60;73.10
78647;DHT22;67961;43.460;3.762;2023-06-05T06:15:06;20.70;73.20
78647;DHT22;67961;43.460;3.762;2023-06-05T06:17:33;20.70;72.80
78647;DHT22;67961;43.460;3.762;2023-06-05T06:19:58;20.70;72.40
78647;DHT22;67961;43.460;3.762;2023-06-05T06:22:24;20.80;72.20
78647;DHT22;67961;43.460;3.762;2023-06-05T06:24:52;20.80;72.10
78647;DHT22;67961;43.460;3.762;2023-06-05T06:27:17;20.80;72.00
78647;DHT22;67961;43.460;3.762;2023-06-05T06:29:50;20.80;72.20
78647;DHT22;67961;43.460;3.762;2023-06-05T06:32:20;20.70;72.30
78647;DHT22;67961;43.460;3.762;2023-06-05T06:34:46;20.80;72.20
78647;DHT22;67961;43.460;3.762;2023-06-05T06:37:15;20.90;72.10
78647;DHT22;67961;43.460;3.762;2023-06-05T06:39:43;21.50;70.70
78647;DHT22;67961;43.460;3.762;2023-06-05T06:42:12;21.60;70.80
78647;DHT22;67961;43.460;3.762;2023-06-05T06:44:38;21.60;70.70
78647;DHT22;67961;43.460;3.762;2023-06-05T06:47:04;21.70;70.80
78647;DHT22;67961;43.460;3.762;2023-06-05T06:49:30;21.70;70.50
78647;DHT22;67961;43.460;3.762;2023-06-05T06:51:56;21.70;70.80
78647;DHT22;67961;43.460;3.762;2023-06-05T06:54:22;21.70;70.70
78647;DHT22;67961;43.460;3.762;2023-06-05T06:56:48;21.80;70.90
78647;DHT22;67961;43.460;3.762;2023-06-05T06:59:15;22.00;70.00
78647;DHT22;67961;43.460;3.762;2023-06-05T07:01:44;22.50;70.00
78647;DHT22;67961;43.460;3.762;2023-06-05T07:04:15;25.30;63.00
78647;DHT22;67961;43.460;3.762;2023-06-05T07:06:45;27.80;56.80
78647;DHT22;67961;43.460;3.762;2023-06-05T07:09:11;29.10;54.00
78647;DHT22;67961;43.460;3.762;2023-06-05T07:11:38;30.00;53.30
78647;DHT22;67961;43.460;3.762;2023-06-05T07:14:03;30.50;51.60
78647;DHT22;67961;43.460;3.762;2023-06-05T07:16:29;30.90;50.60
78647;DHT22;67961;43.460;3.762;2023-06-05T07:18:55;31.30;50.10
78647;DHT22;67961;43.460;3.762;2023-06-05T07:21:21;31.50;49.40
78647;DHT22;67961;43.460;3.762;2023-06-05T07:23:50;31.80;48.60
78647;DHT22;67961;43.460;3.762;2023-06-05T07:26:19;32.00;48.40
78647;DHT22;67961;43.460;3.762;2023-06-05T07:28:45;32.30;47.70
78647;DHT22;67961;43.460;3.762;2023-06-05T07:31:15;32.50;47.90
78647;DHT22;67961;43.460;3.762;2023-06-05T07:33:42;32.80;47.10
78647;DHT22;67961;43.460;3.762;2023-06-05T07:36:07;33.20;45.90
78647;DHT22;67961;43.460;3.762;2023-06-05T07:38:33;33.00;47.20
78647;DHT22;67961;43.460;3.762;2023-06-05T07:40:59;33.20;47.20
78647;DHT22;67961;43.460;3.762;2023-06-05T07:43:27;33.30;47.00
78647;DHT22;67961;43.460;3.762;2023-06-05T07:45:53;33.10;47.40
78647;DHT22;67961;43.460;3.762;2023-06-05T07:48:19;32.20;48.20
78647;DHT22;67961;43.460;3.762;2023-06-05T07:50:45;30.40;51.30
78647;DHT22;67961;43.460;3.762;2023-06-05T07:53:11;29.30;53.10
78647;DHT22;67961;43.460;3.762;2023-06-05T07:55:37;28.10;55.10
78647;DHT22;67961;43.460;3.762;2023-06-05T07:58:02;27.30;57.30
78647;DHT22;67961;43.460;3.762;2023-06-05T08:00:28;26.90;58.40
78647;DHT22;67961;43.460;3.762;2023-06-05T08:02:54;26.70;58.80
78647;DHT22;67961;43.460;3.762;2023-06-05T08:05:19;26.40;59.90
78647;DHT22;67961;43.460;3.762;2023-06-05T08:07:46;26.40;59.60
78647;DHT22;67961;43.460;3.762;2023-06-05T08:10:12;26.60;59.70
78647;DHT22;67961;43.460;3.762;2023-06-05T08:12:39;26.80;59.00
78647;DHT22;67961;43.460;3.762;2023-06-05T08:15:05;26.80;59.30
78647;DHT22;67961;43.460;3.762;2023-06-05T08:17:31;26.60;59.50
78647;DHT22;67961;43.460;3.762;2023-06-05T08:19:57;26.50;60.20
78647;DHT22;67961;43.460;3.762;2023-06-05T08:22:23;26.60;59.50
78647;DHT22;67961;43.460;3.762;2023-06-05T08:24:49;26.80;59.20
78647;DHT22;67961;43.460;3.762;2023-06-05T08:27:17;26.90;58.70
78647;DHT22;67961;43.460;3.762;2023-06-05T08:29:42;27.00;58.30
78647;DHT22;67961;43.460;3.762;2023-06-05T08:32:08;27.20;58.10
78647;DHT22;67961;43.460;3.762;2023-06-05T08:34:34;27.20;58.60
78647;DHT22;67961;43.460;3.762;2023-06-05T08:37:00;27.30;58.40
78647;DHT22;67961;43.460;3.762;2023-06-05T08:39:26;27.20;57.80
78647;DHT22;67961;43.460;3.762;2023-06-05T08:41:57;27.10;57.80
78647;DHT22;67961;43.460;3.762;2023-06-05T08:44:27;27.00;57.90
78647;DHT22;67961;43.460;3.762;2023-06-05T08:47:00;26.80;58.30
78647;DHT22;67961;43.460;3.762;2023-06-05T08:49:27;26.90;58.50
78647;DHT22;67961;43.460;3.762;2023-06-05T08:52:02;27.00;58.30
78647;DHT22;67961;43.460;3.762;2023-06-05T08:54:47;26.90;58.00
78647;DHT22;67961;43.460;3.762;2023-06-05T08:57:13;26.70;58.40
78647;DHT22;67961;43.460;3.762;2023-06-05T08:59:40;26.70;58.30
78647;DHT22;67961;43.460;3.762;2023-06-05T09:02:05;26.80;57.80
78647;DHT22;67961;43.460;3.762;2023-06-05T09:04:31;26.90;58.00
78647;DHT22;67961;43.460;3.762;2023-06-05T09:07:01;27.10;56.90
78647;DHT22;67961;43.460;3.762;2023-06-05T09:09:27;27.20;56.60
78647;DHT22;67961;43.460;3.762;2023-06-05T09:12:07;27.20;57.20
78647;DHT22;67961;43.460;3.762;2023-06-05T09:14:33;27.30;57.20
78647;DHT22;67961;43.460;3.762;2023-06-05T09:17:00;27.30;57.10
78647;DHT22;67961;43.460;3.762;2023-06-05T09:19:40;27.10;57.40
78647;DHT22;67961;43.460;3.762;2023-06-05T09:22:07;26.90;58.50
78647;DHT22;67961;43.460;3.762;2023-06-05T09:24:34;27.00;57.10
78647;DHT22;67961;43.460;3.762;2023-06-05T09:27:04;26.90;57.70
78647;DHT22;67961;43.460;3.762;2023-06-05T09:29:37;26.90;58.30
78647;DHT22;67961;43.460;3.762;2023-06-05T09:32:08;27.00;57.80
78647;DHT22;67961;43.460;3.762;2023-06-05T09:34:36;27.10;57.80
78647;DHT22;67961;43.460;3.762;2023-06-05T09:37:04;27.30;57.40
78647;DHT22;67961;43.460;3.762;2023-06-05T09:39:32;27.40;57.30
78647;DHT22;67961;43.460;3.762;2023-06-05T09:41:58;27.40;56.50
78647;DHT22;67961;43.460;3.762;2023-06-05T09:44:26;27.30;57.10
78647;DHT22;67961;43.460;3.762;2023-06-05T09:47:01;27.10;57.30
78647;DHT22;67961;43.460;3.762;2023-06-05T09:49:45;26.90;58.00
78647;DHT22;67961;43.460;3.762;2023-06-05T09:52:12;26.70;58.30
78647;DHT22;67961;43.460;3.762;2023-06-05T09:54:42;26.80;58.00
78647;DHT22;67961;43.460;3.762;2023-06-05T09:57:11;26.80;58.20
78647;DHT22;67961;43.460;3.762;2023-06-05T09:59:52;26.80;58.30
78647;DHT22;67961;43.460;3.762;2023-06-05T10:02:21;26.70;58.50
78647;DHT22;67961;43.460;3.762;2023-06-05T10:04:56;26.80;58.30
78647;DHT22;67961;43.460;3.762;2023-06-05T10:07:23;26.90;58.40
78647;DHT22;67961;43.460;3.762;2023-06-05T10:09:50;26.90;58.70
78647;DHT22;67961;43.460;3.762;2023-06-05T10:12:16;26.80;56.20
78647;DHT22;67961;43.460;3.762;2023-06-05T10:14:42;26.60;56.70
78647;DHT22;67961;43.460;3.762;2023-06-05T10:17:13;26.60;57.40
78647;DHT22;67961;43.460;3.762;2023-06-05T10:19:43;26.70;57.30
78647;DHT22;67961;43.460;3.762;2023-06-05T10:22:12;26.60;58.00
78647;DHT22;67961;43.460;3.762;2023-06-05T10:24:44;26.50;58.30
78647;DHT22;67961;43.460;3.762;2023-06-05T10:33:05;26.40;57.90
78647;DHT22;67961;43.460;3.762;2023-06-05T10:38:39;26.60;58.00
78647;DHT22;67961;43.460;3.762;2023-06-05T10:41:06;26.40;58.50
78647;DHT22;67961;43.460;3.762;2023-06-05T10:43:48;26.20;58.90
78647;DHT22;67961;43.460;3.762;2023-06-05T10:59:39;26.40;58.90
78647;DHT22;67961;43.460;3.762;2023-06-05T11:07:24;26.80;58.20
78647;DHT22;67961;43.460;3.762;2023-06-05T11:15:36;26.90;57.90
78647;DHT22;67961;43.460;3.762;2023-06-05T11:18:30;26.80;58.60
78647;DHT22;67961;43.460;3.762;2023-06-05T11:20:57;26.60;59.10
78647;DHT22;67961;43.460;3.762;2023-06-05T11:23:23;26.50;59.10
78647;DHT22;67961;43.460;3.762;2023-06-05T11:25:54;26.50;59.00
78647;DHT22;67961;43.460;3.762;2023-06-05T11:28:43;26.50;58.70
78647;DHT22;67961;43.460;3.762;2023-06-05T11:31:10;26.50;58.30
78647;DHT22;67961;43.460;3.762;2023-06-05T11:33:36;26.50;58.00
78647;DHT22;67961;43.460;3.762;2023-06-05T11:36:04;26.40;57.30
78647;DHT22;67961;43.460;3.762;2023-06-05T11:38:31;26.40;58.10
78647;DHT22;67961;43.460;3.762;2023-06-05T11:40:57;26.30;58.40
78647;DHT22;67961;43.460;3.762;2023-06-05T11:43:22;26.40;58.70
78647;DHT22;67961;43.460;3.762;2023-06-05T11:45:53;26.30;58.40
78647;DHT22;67961;43.460;3.762;2023-06-05T11:48:19;26.10;59.70
78647;DHT22;67961;43.460;3.762;2023-06-05T11:50:58;26.30;58.70
78647;DHT22;67961;43.460;3.762;2023-06-05T11:53:25;26.00;58.40
78647;DHT22;67961;43.460;3.762;2023-06-05T11:55:52;26.10;59.40
78647;DHT22;67961;43.460;3.762;2023-06-05T11:58:28;26.20;58.50
78647;DHT22;67961;43.460;3.762;2023-06-05T12:01:27;26.10;59.00
78647;DHT22;67961;43.460;3.762;2023-06-05T12:04:06;26.10;58.20
78647;DHT22;67961;43.460;3.762;2023-06-05T12:06:39;26.10;58.10
78647;DHT22;67961;43.460;3.762;2023-06-05T12:09:10;26.20;58.70
78647;DHT22;67961;43.460;3.762;2023-06-05T12:11:37;26.20;58.40
78647;DHT22;67961;43.460;3.762;2023-06-05T12:14:03;26.10;58.80
78647;DHT22;67961;43.460;3.762;2023-06-05T12:16:33;26.40;57.40
78647;DHT22;67961;43.460;3.762;2023-06-05T12:19:00;26.10;57.40
78647;DHT22;67961;43.460;3.762;2023-06-05T12:21:27;26.00;57.40
78647;DHT22;67961;43.460;3.762;2023-06-05T12:24:03;25.80;57.40
78647;DHT22;67961;43.460;3.762;2023-06-05T12:26:30;25.70;57.80
78647;DHT22;67961;43.460;3.762;2023-06-05T12:29:03;25.40;57.50
78647;DHT22;67961;43.460;3.762;2023-06-05T12:31:35;25.40;58.30
78647;DHT22;67961;43.460;3.762;2023-06-05T12:34:02;25.60;57.80
78647;DHT22;67961;43.460;3.762;2023-06-05T12:36:28;25.70;57.80
78647;DHT22;67961;43.460;3.762;2023-06-05T12:38:54;25.80;56.70
78647;DHT22;67961;43.460;3.762;2023-06-05T12:41:20;25.60;56.40
78647;DHT22;67961;43.460;3.762;2023-06-05T12:43:46;25.60;56.80
78647;DHT22;67961;43.460;3.762;2023-06-05T12:46:23;25.60;58.00
78647;DHT22;67961;43.460;3.762;2023-06-05T12:48:49;25.60;56.20
78647;DHT22;67961;43.460;3.762;2023-06-05T12:51:15;25.60;57.00
78647;DHT22;67961;43.460;3.762;2023-06-05T12:53:40;25.60;57.30
78647;DHT22;67961;43.460;3.762;2023-06-05T12:56:06;25.60;56.20
78647;DHT22;67961;43.460;3.762;2023-06-05T12:58:32;25.40;56.70
78647;DHT22;67961;43.460;3.762;2023-06-05T13:00:58;25.20;57.70
78647;DHT22;67961;43.460;3.762;2023-06-05T13:03:24;25.20;57.40
78647;DHT22;67961;43.460;3.762;2023-06-05T13:05:50;25.00;56.60
78647;DHT22;67961;43.460;3.762;2023-06-05T13:08:16;25.00;58.20
78647;DHT22;67961;43.460;3.762;2023-06-05T13:10:41;25.20;57.30
78647;DHT22;67961;43.460;3.762;2023-06-05T13:13:07;25.30;57.90
78647;DHT22;67961;43.460;3.762;2023-06-05T13:15:33;25.50;56.50
78647;DHT22;67961;43.460;3.762;2023-06-05T13:17:58;25.60;57.00
78647;DHT22;67961;43.460;3.762;2023-06-05T13:20:24;25.50;58.00
78647;DHT22;67961;43.460;3.762;2023-06-05T13:22:50;25.20;58.20
78647;DHT22;67961;43.460;3.762;2023-06-05T13:25:16;25.00;58.20
78647;DHT22;67961;43.460;3.762;2023-06-05T13:27:42;24.80;57.40
78647;DHT22;67961;43.460;3.762;2023-06-05T13:30:08;24.80;58.40
78647;DHT22;67961;43.460;3.762;2023-06-05T13:32:35;24.60;59.20
78647;DHT22;67961;43.460;3.762;2023-06-05T13:35:01;24.60;59.00
78647;DHT22;67961;43.460;3.762;2023-06-05T13:37:26;24.50;59.70
78647;DHT22;67961;43.460;3.762;2023-06-05T13:39:52;24.60;60.00
78647;DHT22;67961;43.460;3.762;2023-06-05T13:42:17;24.40;60.30
78647;DHT22;67961;43.460;3.762;2023-06-05T13:44:43;24.40;60.30
78647;DHT22;67961;43.460;3.762;2023-06-05T13:47:09;24.30;60.40
78647;DHT22;67961;43.460;3.762;2023-06-05T13:49:35;24.20;60.80
78647;DHT22;67961;43.460;3.762;2023-06-05T13:52:00;24.20;60.90
78647;DHT22;67961;43.460;3.762;2023-06-05T13:54:26;24.20;61.10
78647;DHT22;67961;43.460;3.762;2023-06-05T13:56:52;24.20;61.10
78647;DHT22;67961;43.460;3.762;2023-06-05T13:59:18;24.20;61.00
78647;DHT22;67961;43.460;3.762;2023-06-05T14:01:43;24.10;61.20
78647;DHT22;67961;43.460;3.762;2023-06-05T14:04:09;24.10;61.30
78647;DHT22;67961;43.460;3.762;2023-06-05T14:06:35;24.00;61.40
78647;DHT22;67961;43.460;3.762;2023-06-05T14:09:05;24.00;61.30
78647;DHT22;67961;43.460;3.762;2023-06-05T14:11:31;24.00;61.60
78647;DHT22;67961;43.460;3.762;2023-06-05T14:13:57;24.00;61.90
78647;DHT22;67961;43.460;3.762;2023-06-05T14:16:22;23.80;62.30
78647;DHT22;67961;43.460;3.762;2023-06-05T14:18:48;23.80;62.60
78647;DHT22;67961;43.460;3.762;2023-06-05T14:21:14;23.80;62.60
78647;DHT22;67961;43.460;3.762;2023-06-05T14:23:40;23.70;62.60
78647;DHT22;67961;43.460;3.762;2023-06-05T14:26:05;23.60;62.70
78647;DHT22;67961;43.460;3.762;2023-06-05T14:28:31;23.60;63.20
78647;DHT22;67961;43.460;3.762;2023-06-05T14:30:57;23.60;63.30
78647;DHT22;67961;43.460;3.762;2023-06-05T14:33:23;23.60;63.40
78647;DHT22;67961;43.460;3.762;2023-06-05T14:35:48;23.60;63.30
78647;DHT22;67961;43.460;3.762;2023-06-05T14:38:14;23.60;63.30
78647;DHT22;67961;43.460;3.762;2023-06-05T14:40:40;23.60;63.20
78647;DHT22;67961;43.460;3.762;2023-06-05T14:43:07;23.60;63.10
78647;DHT22;67961;43.460;3.762;2023-06-05T14:45:32;23.60;63.00
78647;DHT22;67961;43.460;3.762;2023-06-05T14:47:58;23.60;63.20
78647;DHT22;67961;43.460;3.762;2023-06-05T14:50:24;23.60;62.30
78647;DHT22;67961;43.460;3.762;2023-06-05T14:52:50;23.60;62.00
78647;DHT22;67961;43.460;3.762;2023-06-05T14:55:15;23.50;61.20
78647;DHT22;67961;43.460;3.762;2023-06-05T14:57:41;23.50;60.90
78647;DHT22;67961;43.460;3.762;2023-06-05T15:00:07;23.40;60.20
78647;DHT22;67961;43.460;3.762;2023-06-05T15:02:34;23.40;59.80
78647;DHT22;67961;43.460;3.762;2023-06-05T15:05:01;23.50;60.00
78647;DHT22;67961;43.460;3.762;2023-06-05T15:07:35;23.50;60.40
78647;DHT22;67961;43.460;3.762;2023-06-05T15:10:02;23.50;60.30
78647;DHT22;67961;43.460;3.762;2023-06-05T15:12:28;23.60;60.40
78647;DHT22;67961;43.460;3.762;2023-06-05T15:14:53;23.60;60.20
78647;DHT22;67961;43.460;3.762;2023-06-05T15:17:19;23.70;60.30
78647;DHT22;67961;43.460;3.762;2023-06-05T15:19:44;23.90;60.50
78647;DHT22;67961;43.460;3.762;2023-06-05T15:22:10;23.90;60.60
78647;DHT22;67961;43.460;3.762;2023-06-05T15:24:36;24.00;61.30
78647;DHT22;67961;43.460;3.762;2023-06-05T15:27:02;24.20;61.20
78647;DHT22;67961;43.460;3.762;2023-06-05T15:29:28;24.20;60.50
78647;DHT22;67961;43.460;3.762;2023-06-05T15:31:54;24.20;60.30
78647;DHT22;67961;43.460;3.762;2023-06-05T15:34:20;24.30;60.70
78647;DHT22;67961;43.460;3.762;2023-06-05T15:36:46;24.30;60.70
78647;DHT22;67961;43.460;3.762;2023-06-05T15:39:12;24.30;61.10
78647;DHT22;67961;43.460;3.762;2023-06-05T15:41:39;24.40;61.90
78647;DHT22;67961;43.460;3.762;2023-06-05T15:44:05;24.50;61.70
78647;DHT22;67961;43.460;3.762;2023-06-05T15:46:33;24.50;61.70
78647;DHT22;67961;43.460;3.762;2023-06-05T15:48:58;24.50;61.90
78647;DHT22;67961;43.460;3.762;2023-06-05T15:51:24;24.60;61.90
78647;DHT22;67961;43.460;3.762;2023-06-05T15:53:54;24.60;61.70
78647;DHT22;67961;43.460;3.762;2023-06-05T15:56:21;24.60;61.90
78647;DHT22;67961;43.460;3.762;2023-06-05T15:58:47;24.60;61.80
78647;DHT22;67961;43.460;3.762;2023-06-05T16:01:12;24.60;62.30
78647;DHT22;67961;43.460;3.762;2023-06-05T16:03:38;24.60;62.30
78647;DHT22;67961;43.460;3.762;2023-06-05T16:06:04;24.60;62.20
78647;DHT22;67961;43.460;3.762;2023-06-05T16:08:30;24.60;62.30
78647;DHT22;67961;43.460;3.762;2023-06-05T16:10:55;24.60;62.50
78647;DHT22;67961;43.460;3.762;2023-06-05T16:13:24;24.60;62.50